createdAt,value
2019-01-30T00:01:38.900Z,99499.22
2019-01-30T00:04:06.019Z,99503.57
2019-01-30T00:06:33.086Z,99494.52
2019-01-30T00:09:00.136Z,99491.33
2019-01-30T00:11:27.271Z,99494.73
2019-01-30T00:13:54.334Z,99492.03
2019-01-30T00:16:21.415Z,99486.26
2019-01-30T00:18:48.571Z,99486.73
2019-01-30T00:21:15.644Z,99480.38
2019-01-30T00:23:42.689Z,99479.97
2019-01-30T00:26:09.933Z,99473.78
2019-01-30T00:28:37.068Z,99474.20
2019-01-30T00:31:04.158Z,99470.31
2019-01-30T00:33:31.224Z,99464.61
2019-01-30T00:35:58.280Z,99459.37
2019-01-30T00:38:25.342Z,99463.19
2019-01-30T00:40:52.471Z,99457.95
2019-01-30T00:43:19.502Z,99452.72
2019-01-30T00:45:46.643Z,99451.42
2019-01-30T00:48:13.705Z,99451.30
2019-01-30T00:50:40.757Z,99450.83
2019-01-30T00:53:07.870Z,99445.19
2019-01-30T00:55:34.900Z,99441.66
2019-01-30T00:58:02.114Z,99440.23
2019-01-30T01:00:30.055Z,99433.52
2019-01-30T01:02:57.116Z,99428.70
2019-01-30T01:05:24.287Z,99428.28
2019-01-30T01:07:51.623Z,99423.58
2019-01-30T01:10:19.033Z,99416.58
2019-01-30T01:12:46.079Z,99414.87
2019-01-30T01:15:14.050Z,99409.17
2019-01-30T01:17:41.350Z,99403.05
2019-01-30T01:20:10.626Z,99400.88
2019-01-30T01:22:37.702Z,99398.64
2019-01-30T01:25:06.410Z,99396.05
2019-01-30T01:27:33.439Z,99390.41
2019-01-30T01:30:00.695Z,99390.00
2019-01-30T01:32:27.729Z,99393.75
2019-01-30T01:34:54.802Z,99388.58
2019-01-30T01:37:21.891Z,99391.17
2019-01-30T01:39:50.927Z,99390.10
2019-01-30T01:42:17.966Z,99386.03
2019-01-30T01:44:45.052Z,99391.97
2019-01-30T01:47:12.201Z,99383.14
2019-01-30T01:49:39.252Z,99385.13
2019-01-30T01:52:06.351Z,99377.66
2019-01-30T01:54:33.406Z,99377.88
2019-01-30T01:57:00.444Z,99372.14
2019-01-30T01:59:27.508Z,99364.73
2019-01-30T02:01:54.561Z,99361.33
2019-01-30T02:04:21.606Z,99355.50
2019-01-30T02:06:48.682Z,99353.73
2019-01-30T02:09:15.738Z,99355.91
2019-01-30T02:11:43.739Z,99345.81
2019-01-30T02:14:10.821Z,99349.09
2019-01-30T02:16:38.079Z,99339.04
2019-01-30T02:19:05.194Z,99336.93
2019-01-30T02:21:32.253Z,99334.88
2019-01-30T02:23:59.431Z,99328.77
2019-01-30T02:26:26.560Z,99322.18
2019-01-30T02:28:53.602Z,99322.12
2019-01-30T02:31:20.693Z,99313.48
2019-01-30T02:33:47.755Z,99316.19
2019-01-30T02:36:14.799Z,99317.07
2019-01-30T02:38:41.888Z,99317.77
2019-01-30T02:41:09.142Z,99316.06
2019-01-30T02:43:36.316Z,99315.13
2019-01-30T02:46:03.745Z,99309.42
2019-01-30T02:48:30.800Z,99308.06
2019-01-30T02:50:57.915Z,99305.89
2019-01-30T02:53:25.004Z,99307.94
2019-01-30T02:55:52.076Z,99303.12
2019-01-30T02:58:19.181Z,99306.17
2019-01-30T03:00:46.249Z,99300.06
2019-01-30T03:03:13.317Z,99295.88
2019-01-30T03:05:40.375Z,99293.51
2019-01-30T03:08:07.614Z,99294.27
2019-01-30T03:10:34.668Z,99291.14
2019-01-30T03:13:01.738Z,99284.50
2019-01-30T03:15:28.859Z,99284.65
2019-01-30T03:17:57.750Z,99278.06
2019-01-30T03:20:26.038Z,99283.10
2019-01-30T03:22:53.232Z,99286.31
2019-01-30T03:25:21.660Z,99286.05
2019-01-30T03:27:50.990Z,99284.43
2019-01-30T03:30:25.995Z,99279.67
2019-01-30T03:32:53.029Z,99277.64
2019-01-30T03:35:20.089Z,99277.70
2019-01-30T03:37:47.234Z,99277.22
2019-01-30T03:40:16.079Z,99271.18
2019-01-30T03:42:43.136Z,99270.42
2019-01-30T03:45:11.122Z,99270.49
2019-01-30T03:47:38.200Z,99273.89
2019-01-30T03:50:06.615Z,99268.45
2019-01-30T03:52:33.769Z,99268.30
2019-01-30T03:55:00.837Z,99263.27
2019-01-30T03:57:29.050Z,99259.11
2019-01-30T03:59:56.396Z,99255.70
2019-01-30T04:02:23.480Z,99258.77
2019-01-30T04:04:50.755Z,99249.85
2019-01-30T04:07:17.856Z,99250.04
2019-01-30T04:09:44.916Z,99250.98
2019-01-30T04:12:11.965Z,99251.87
2019-01-30T04:14:39.073Z,99254.09
2019-01-30T04:17:06.191Z,99247.36
2019-01-30T04:19:33.246Z,99247.08
2019-01-30T04:22:00.349Z,99258.12
2019-01-30T04:24:27.475Z,99254.03
2019-01-30T04:26:54.579Z,99257.20
2019-01-30T04:29:21.748Z,99253.86
2019-01-30T04:31:48.812Z,99258.15
2019-01-30T04:34:15.853Z,99254.75
2019-01-30T04:36:42.929Z,99252.75
2019-01-30T04:39:09.962Z,99254.58
2019-01-30T04:41:37.112Z,99248.59
2019-01-30T04:44:04.433Z,99256.05
2019-01-30T04:46:31.489Z,99245.36
2019-01-30T04:48:58.669Z,99249.52
2019-01-30T04:51:25.770Z,99247.75
2019-01-30T04:53:52.813Z,99248.16
2019-01-30T04:56:19.853Z,99239.53
2019-01-30T04:58:46.941Z,99244.81
2019-01-30T05:01:14.146Z,99241.41
2019-01-30T05:03:41.230Z,99235.00
2019-01-30T05:06:08.329Z,99239.41
2019-01-30T05:08:35.433Z,99230.77
2019-01-30T05:11:02.507Z,99230.42
2019-01-30T05:13:29.556Z,99220.55
2019-01-30T05:15:56.672Z,99224.61
2019-01-30T05:18:23.797Z,99228.95
2019-01-30T05:20:50.879Z,99217.38
2019-01-30T05:23:17.965Z,99216.97
2019-01-30T05:25:45.156Z,99217.91
2019-01-30T05:28:12.347Z,99211.55
2019-01-30T05:30:39.876Z,99208.97
2019-01-30T05:33:06.974Z,99201.69
2019-01-30T05:35:34.047Z,99200.97
2019-01-30T05:38:01.230Z,99205.27
2019-01-30T05:40:28.322Z,99203.14
2019-01-30T05:42:55.378Z,99205.84
2019-01-30T05:45:22.697Z,99205.44
2019-01-30T05:47:49.754Z,99201.14
2019-01-30T05:50:16.797Z,99199.49
2019-01-30T05:53:27.794Z,99205.55
2019-01-30T05:55:54.880Z,99200.37
2019-01-30T05:58:22.024Z,99194.32
2019-01-30T06:00:49.185Z,99194.68
2019-01-30T06:03:16.478Z,99191.27
2019-01-30T06:05:44.093Z,99190.39
2019-01-30T06:08:11.301Z,99195.50
2019-01-30T06:10:38.348Z,99190.27
2019-01-30T06:13:05.427Z,99195.91
2019-01-30T06:15:32.495Z,99198.86
2019-01-30T06:17:59.633Z,99195.80
2019-01-30T06:20:26.962Z,99191.04
2019-01-30T06:22:54.620Z,99185.45
2019-01-30T06:25:22.020Z,99193.22
2019-01-30T06:27:49.229Z,99187.98
2019-01-30T06:30:17.588Z,99191.45
2019-01-30T06:32:44.634Z,99185.75
2019-01-30T06:35:11.826Z,99185.70
2019-01-30T06:37:38.914Z,99175.30
2019-01-30T06:40:12.456Z,99178.83
2019-01-30T06:42:39.545Z,99174.77
2019-01-30T06:45:07.449Z,99176.59
2019-01-30T06:47:34.527Z,99171.36
2019-01-30T06:50:01.624Z,99173.95
2019-01-30T06:52:28.671Z,99175.30
2019-01-30T06:54:55.743Z,99172.19
2019-01-30T06:57:22.923Z,99172.19
2019-01-30T06:59:56.353Z,99170.84
2019-01-30T07:02:32.173Z,99170.89
2019-01-30T07:04:52.409Z,99172.08
2019-01-30T07:07:19.561Z,99172.90
2019-01-30T07:09:46.761Z,99168.49
2019-01-30T07:12:13.899Z,99166.79
2019-01-30T07:14:40.944Z,99172.90
2019-01-30T07:17:08.013Z,99172.08
2019-01-30T07:19:35.084Z,99174.66
2019-01-30T07:22:02.144Z,99169.08
2019-01-30T07:24:31.019Z,99175.07
2019-01-30T07:26:58.201Z,99168.08
2019-01-30T07:29:25.419Z,99172.90
2019-01-30T07:31:52.549Z,99169.43
2019-01-30T07:34:19.631Z,99170.31
2019-01-30T07:36:46.710Z,99167.38
2019-01-30T07:39:13.840Z,99166.14
2019-01-30T07:41:40.920Z,99163.61
2019-01-30T07:44:08.036Z,99165.02
2019-01-30T07:46:35.357Z,99166.89
2019-01-30T07:49:02.445Z,99170.41
2019-01-30T07:51:29.474Z,99176.11
2019-01-30T07:53:56.590Z,99178.69
2019-01-30T07:56:23.697Z,99177.92
2019-01-30T07:58:50.737Z,99177.09
2019-01-30T08:01:17.928Z,99171.57
2019-01-30T08:03:45.009Z,99175.56
2019-01-30T08:06:12.154Z,99175.20
2019-01-30T08:08:39.326Z,99166.73
2019-01-30T08:11:07.452Z,99172.84
2019-01-30T08:13:34.642Z,99179.47
2019-01-30T08:16:01.742Z,99176.58
2019-01-30T08:18:28.842Z,99181.51
2019-01-30T08:20:56.383Z,99180.33
2019-01-30T08:23:23.841Z,99178.31
2019-01-30T08:25:51.215Z,99177.54
2019-01-30T08:28:18.407Z,99188.47
2019-01-30T08:30:45.901Z,99179.93
2019-01-30T08:33:13.284Z,99188.68
2019-01-30T08:35:40.358Z,99189.15
2019-01-30T08:38:07.579Z,99196.97
2019-01-30T08:40:34.643Z,99197.02
2019-01-30T08:43:01.697Z,99188.95
2019-01-30T08:45:30.380Z,99189.88
2019-01-30T08:47:57.496Z,99191.28
2019-01-30T08:50:27.844Z,99198.27
2019-01-30T08:52:54.975Z,99200.55
2019-01-30T08:55:22.032Z,99203.25
2019-01-30T08:57:49.201Z,99199.05
2019-01-30T09:00:17.934Z,99206.62
2019-01-30T09:02:45.065Z,99207.70
2019-01-30T09:05:12.842Z,99201.48
2019-01-30T09:07:44.265Z,99197.84
2019-01-30T09:10:12.019Z,99198.41
2019-01-30T09:12:39.069Z,99189.91
2019-01-30T09:15:07.668Z,99196.12
2019-01-30T09:17:34.798Z,99194.41
2019-01-30T09:20:04.379Z,99197.93
2019-01-30T09:22:31.484Z,99201.87
2019-01-30T09:24:58.580Z,99201.87
2019-01-30T09:27:25.596Z,99203.21
2019-01-30T09:29:52.753Z,99201.50
2019-01-30T09:32:19.865Z,99212.75
2019-01-30T09:34:46.920Z,99217.93
2019-01-30T09:37:13.983Z,99215.75
2019-01-30T09:39:41.073Z,99218.39
2019-01-30T09:42:08.178Z,99213.16
2019-01-30T09:44:35.351Z,99221.45
2019-01-30T09:47:02.481Z,99226.22
2019-01-30T09:49:29.550Z,99222.06
2019-01-30T09:51:56.552Z,99226.73
2019-01-30T09:54:23.626Z,99232.80
2019-01-30T09:56:50.839Z,99231.50
2019-01-30T09:59:17.965Z,99240.94
2019-01-30T10:01:45.051Z,99239.48
2019-01-30T10:04:12.144Z,99240.06
2019-01-30T10:06:39.252Z,99241.25
2019-01-30T10:09:44.161Z,99241.10
2019-01-30T10:12:11.308Z,99237.94
2019-01-30T10:14:38.384Z,99244.31
2019-01-30T10:17:05.452Z,99245.11
2019-01-30T10:19:32.551Z,99251.53
2019-01-30T10:21:59.716Z,99253.55
2019-01-30T10:24:29.032Z,99253.14
2019-01-30T10:26:55.810Z,99252.67
2019-01-30T10:29:22.931Z,99246.55
2019-01-30T10:31:52.103Z,99247.44
2019-01-30T10:34:19.249Z,99247.08
2019-01-30T10:36:48.112Z,99246.61
2019-01-30T10:39:15.156Z,99251.38
2019-01-30T10:41:42.227Z,99250.49
2019-01-30T10:44:09.263Z,99255.63
2019-01-30T10:46:36.310Z,99254.37
2019-01-30T10:49:03.516Z,99255.26
2019-01-30T10:51:30.562Z,99250.49
2019-01-30T10:53:57.615Z,99249.25
2019-01-30T10:56:24.699Z,99252.72
2019-01-30T10:58:51.812Z,99254.48
2019-01-30T11:01:18.894Z,99253.19
2019-01-30T11:03:46.069Z,99261.42
2019-01-30T11:06:15.038Z,99260.59
2019-01-30T11:08:42.093Z,99260.03
2019-01-30T11:11:09.348Z,99262.61
2019-01-30T11:13:36.474Z,99261.01
2019-01-30T11:16:06.739Z,99263.66
2019-01-30T11:18:35.070Z,99266.71
2019-01-30T11:21:05.962Z,99260.23
2019-01-30T11:23:33.073Z,99258.37
2019-01-30T11:26:00.153Z,99263.91
2019-01-30T11:28:27.248Z,99260.49
2019-01-30T11:30:54.318Z,99253.30
2019-01-30T11:33:21.419Z,99253.24
2019-01-30T11:35:48.568Z,99254.95
2019-01-30T11:38:15.636Z,99257.95
2019-01-30T11:40:42.682Z,99251.79
2019-01-30T11:43:09.969Z,99250.03
2019-01-30T11:45:39.322Z,99253.44
2019-01-30T11:48:07.319Z,99258.20
2019-01-30T11:50:34.622Z,99251.32
2019-01-30T11:53:01.784Z,99254.37
2019-01-30T11:55:28.954Z,99253.96
2019-01-30T11:57:56.081Z,99257.02
2019-01-30T12:00:47.265Z,99259.61
2019-01-30T12:03:14.566Z,99259.14
2019-01-30T12:05:43.476Z,99262.61
2019-01-30T12:08:10.798Z,99267.44
2019-01-30T12:10:37.955Z,99260.13
2019-01-30T12:13:05.064Z,99258.01
2019-01-30T12:15:32.142Z,99257.13
2019-01-30T12:17:59.216Z,99259.36
2019-01-30T12:20:26.331Z,99257.59
2019-01-30T12:22:54.326Z,99265.56
2019-01-30T12:25:21.644Z,99255.92
2019-01-30T12:27:50.786Z,99259.13
2019-01-30T12:30:20.010Z,99258.20
2019-01-30T12:32:47.102Z,99254.26
2019-01-30T12:35:14.273Z,99265.08
2019-01-30T12:37:41.369Z,99258.03
2019-01-30T12:40:09.929Z,99259.69
2019-01-30T12:42:36.969Z,99264.45
2019-01-30T12:45:05.814Z,99265.39
2019-01-30T12:47:32.867Z,99264.92
2019-01-30T12:49:59.939Z,99262.69
2019-01-30T12:52:27.124Z,99270.81
2019-01-30T12:54:54.234Z,99271.28
2019-01-30T12:57:21.309Z,99274.81
2019-01-30T12:59:48.419Z,99279.16
2019-01-30T13:02:15.454Z,99282.69
2019-01-30T13:04:42.626Z,99277.04
2019-01-30T13:07:09.718Z,99282.94
2019-01-30T13:09:36.758Z,99280.65
2019-01-30T13:12:04.115Z,99276.35
2019-01-30T13:14:31.369Z,99276.35
2019-01-30T13:16:58.516Z,99279.83
2019-01-30T13:19:25.555Z,99276.00
2019-01-30T13:21:52.845Z,99271.39
2019-01-30T13:24:20.115Z,99272.33
2019-01-30T13:26:47.171Z,99278.50
2019-01-30T13:29:14.240Z,99274.78
2019-01-30T13:31:41.329Z,99278.19
2019-01-30T13:34:08.411Z,99269.44
2019-01-30T13:36:35.484Z,99269.91
2019-01-30T13:39:05.928Z,99276.02
2019-01-30T13:41:32.960Z,99273.73
2019-01-30T13:44:00.167Z,99273.16
2019-01-30T13:46:27.317Z,99275.69
2019-01-30T13:48:54.400Z,99283.09
2019-01-30T13:51:24.578Z,99283.87
2019-01-30T13:53:51.669Z,99288.64
2019-01-30T13:56:18.862Z,99290.40
2019-01-30T13:58:45.990Z,99293.20
2019-01-30T14:01:17.568Z,99300.20
2019-01-30T14:03:42.048Z,99298.91
2019-01-30T14:06:09.302Z,99305.02
2019-01-30T14:08:36.457Z,99308.44
2019-01-30T14:11:03.498Z,99307.03
2019-01-30T14:13:30.727Z,99311.22
2019-01-30T14:15:57.932Z,99314.28
2019-01-30T14:18:25.102Z,99315.16
2019-01-30T14:20:52.196Z,99321.94
2019-01-30T14:23:19.273Z,99315.87
2019-01-30T14:25:46.390Z,99314.47
2019-01-30T14:28:13.674Z,99318.71
2019-01-30T14:30:40.707Z,99320.95
2019-01-30T14:33:08.433Z,99319.88
2019-01-30T14:35:40.222Z,99323.45
2019-01-30T14:38:07.321Z,99328.27
2019-01-30T14:40:34.374Z,99319.68
2019-01-30T14:43:01.470Z,99322.84
2019-01-30T14:45:28.720Z,99324.67
2019-01-30T14:47:55.754Z,99329.02
2019-01-30T14:50:23.983Z,99330.31
2019-01-30T14:52:51.246Z,99337.20
2019-01-30T14:55:18.606Z,99335.96
2019-01-30T14:57:45.720Z,99334.55
2019-01-30T15:00:16.019Z,99345.80
2019-01-30T15:02:43.116Z,99337.15
2019-01-30T15:05:21.439Z,99343.67
2019-01-30T15:07:40.309Z,99350.20
2019-01-30T15:10:09.136Z,99346.27
2019-01-30T15:12:36.263Z,99355.28
2019-01-30T15:15:04.909Z,99352.93
2019-01-30T15:17:31.998Z,99351.58
2019-01-30T15:19:59.105Z,99359.77
2019-01-30T15:22:26.316Z,99360.17
2019-01-30T15:24:53.407Z,99363.06
2019-01-30T15:27:22.526Z,99360.48
2019-01-30T15:29:50.725Z,99369.89
2019-01-30T15:32:17.909Z,99370.78
2019-01-30T15:34:45.028Z,99371.55
2019-01-30T15:37:31.540Z,99375.08
2019-01-30T15:39:58.855Z,99379.31
2019-01-30T15:42:26.054Z,99378.48
2019-01-30T15:44:53.135Z,99381.08
2019-01-30T15:47:20.273Z,99386.78
2019-01-30T15:49:47.563Z,99384.96
2019-01-30T15:52:14.786Z,99385.44
2019-01-30T15:54:41.907Z,99385.44
2019-01-30T15:57:09.004Z,99388.02
2019-01-30T15:59:36.126Z,99389.38
2019-01-30T16:02:03.879Z,99394.14
2019-01-30T16:04:30.984Z,99392.43
2019-01-30T16:06:58.230Z,99401.08
2019-01-30T16:09:25.296Z,99397.55
2019-01-30T16:11:52.363Z,99406.62
2019-01-30T16:14:19.485Z,99404.50
2019-01-30T16:16:46.784Z,99414.45
2019-01-30T16:19:13.905Z,99416.20
2019-01-30T16:21:41.021Z,99420.73
2019-01-30T16:24:08.140Z,99423.56
2019-01-30T16:26:35.248Z,99426.86
2019-01-30T16:29:04.395Z,99432.69
2019-01-30T16:31:31.595Z,99431.63
2019-01-30T16:33:59.883Z,99428.86
2019-01-30T16:36:27.005Z,99426.28
2019-01-30T16:38:54.102Z,99439.10
2019-01-30T16:41:21.165Z,99438.10
2019-01-30T16:43:48.269Z,99438.33
2019-01-30T16:46:18.402Z,99439.56
2019-01-30T16:48:45.439Z,99444.80
2019-01-30T16:51:12.542Z,99440.39
2019-01-30T16:53:39.603Z,99445.03
2019-01-30T16:56:06.693Z,99448.97
2019-01-30T16:58:33.877Z,99446.73
2019-01-30T17:01:00.933Z,99455.80
2019-01-30T17:03:28.038Z,99463.80
2019-01-30T17:06:06.664Z,99459.80
2019-01-30T17:08:24.206Z,99463.62
2019-01-30T17:10:51.311Z,99461.09
2019-01-30T17:13:18.453Z,99463.62
2019-01-30T17:15:45.500Z,99472.27
2019-01-30T17:18:13.422Z,99468.33
2019-01-30T17:20:40.617Z,99467.09
2019-01-30T17:23:07.805Z,99464.50
2019-01-30T17:25:35.390Z,99468.50
2019-01-30T17:28:02.557Z,99470.56
2019-01-30T17:30:47.646Z,99471.03
2019-01-30T17:33:14.700Z,99474.98
2019-01-30T17:35:42.002Z,99477.56
2019-01-30T17:38:09.574Z,99474.38
2019-01-30T17:40:36.796Z,99477.03
2019-01-30T17:43:04.069Z,99480.86
2019-01-30T17:45:31.197Z,99486.50
2019-01-30T17:47:58.442Z,99480.09
2019-01-30T17:50:26.333Z,99482.20
2019-01-30T17:52:53.485Z,99478.33
2019-01-30T17:55:20.664Z,99483.97
2019-01-30T17:57:47.868Z,99480.56
2019-01-30T18:00:37.985Z,99485.62
2019-01-30T18:03:05.469Z,99484.39
2019-01-30T18:05:32.614Z,99484.27
2019-01-30T18:07:59.822Z,99485.56
2019-01-30T18:10:26.923Z,99490.26
2019-01-30T18:12:53.990Z,99491.97
2019-01-30T18:15:21.220Z,99494.55
2019-01-30T18:17:48.317Z,99496.13
2019-01-30T18:20:15.772Z,99498.31
2019-01-30T18:22:44.518Z,99490.89
2019-01-30T18:25:13.140Z,99493.55
2019-01-30T18:27:40.222Z,99500.48
2019-01-30T18:30:10.321Z,99498.31
2019-01-30T18:32:37.412Z,99498.37
2019-01-30T18:35:05.115Z,99498.37
2019-01-30T18:37:32.380Z,99504.50
2019-01-30T18:39:59.539Z,99506.95
2019-01-30T18:42:26.593Z,99503.95
2019-01-30T18:44:53.719Z,99504.97
2019-01-30T18:47:20.762Z,99506.73
2019-01-30T18:50:45.775Z,99507.08
2019-01-30T18:53:12.460Z,99504.97
2019-01-30T18:55:39.678Z,99509.33
2019-01-30T18:58:06.791Z,99510.97
2019-01-30T19:00:36.779Z,99510.97
2019-01-30T19:03:05.763Z,99510.20
2019-01-30T19:06:00.651Z,99517.44
2019-01-30T19:08:27.699Z,99521.25
2019-01-30T19:10:54.781Z,99516.55
2019-01-30T19:13:21.893Z,99519.48
2019-01-30T19:15:48.957Z,99516.90
2019-01-30T19:18:16.352Z,99518.13
2019-01-30T19:20:45.988Z,99519.02
2019-01-30T19:23:13.250Z,99525.02
2019-01-30T19:25:40.393Z,99524.54
2019-01-30T19:28:07.794Z,99518.54
2019-01-30T19:30:35.023Z,99523.78
2019-01-30T19:33:11.142Z,99524.95
2019-01-30T19:35:40.523Z,99527.66
2019-01-30T19:38:07.943Z,99537.66
2019-01-30T19:44:06.201Z,99530.66
2019-01-30T19:46:33.250Z,99537.13
2019-01-30T19:49:00.324Z,99541.89
2019-01-30T19:51:27.439Z,99535.90
2019-01-30T19:53:54.551Z,99543.37
2019-01-30T19:56:21.651Z,99543.09
2019-01-30T19:58:48.744Z,99536.22
2019-01-30T20:01:15.796Z,99540.56
2019-01-30T20:03:42.975Z,99539.81
2019-01-30T20:06:10.794Z,99552.34
2019-01-30T20:08:37.856Z,99549.81
2019-01-30T20:11:04.933Z,99557.83
2019-01-30T20:13:32.210Z,99563.95
2019-01-30T20:15:59.416Z,99568.31
2019-01-30T20:19:22.707Z,99569.26
2019-01-30T20:21:49.760Z,99564.42
2019-01-30T20:24:17.067Z,99568.09
2019-01-30T20:26:44.310Z,99566.38
2019-01-30T20:29:11.523Z,99569.51
2019-01-30T20:31:38.609Z,99573.39
2019-01-30T20:34:10.295Z,99577.27
2019-01-30T20:36:34.671Z,99576.33
2019-01-30T20:39:01.776Z,99581.16
2019-01-30T20:41:28.871Z,99569.56
2019-01-30T20:43:56.167Z,99575.98
2019-01-30T20:46:23.328Z,99575.57
2019-01-30T20:48:51.972Z,99580.11
2019-01-30T20:51:19.310Z,99580.94
2019-01-30T20:53:46.402Z,99584.00
2019-01-30T20:56:13.719Z,99583.17
2019-01-30T20:58:48.298Z,99583.65
2019-01-30T21:01:22.751Z,99578.88
2019-01-30T21:03:49.814Z,99579.89
2019-01-30T21:06:18.805Z,99582.53
2019-01-30T21:08:45.929Z,99577.95
2019-01-30T21:11:12.975Z,99581.24
2019-01-30T21:13:40.944Z,99586.48
2019-01-30T21:16:08.058Z,99583.19
2019-01-30T21:18:35.136Z,99579.31
2019-01-30T21:21:02.352Z,99593.20
2019-01-30T21:23:29.475Z,99592.73
2019-01-30T21:25:56.673Z,99596.39
2019-01-30T21:28:27.199Z,99589.03
2019-01-30T21:30:54.496Z,99592.86
2019-01-30T21:33:21.569Z,99590.03
2019-01-30T21:35:48.673Z,99588.84
2019-01-30T21:38:15.745Z,99591.21
2019-01-30T21:40:42.790Z,99586.16
2019-01-30T21:44:08.673Z,99590.03
2019-01-30T21:46:35.745Z,99586.03
2019-01-30T21:49:02.937Z,99585.14
2019-01-30T21:51:33.193Z,99587.80
2019-01-30T21:54:00.284Z,99594.33
2019-01-30T21:56:27.346Z,99585.55
2019-01-30T21:58:56.891Z,99588.09
2019-01-30T22:01:24.026Z,99596.80
2019-01-30T22:03:51.056Z,99597.56
2019-01-30T22:06:18.319Z,99600.16
2019-01-30T22:08:45.525Z,99599.91
2019-01-30T22:11:12.649Z,99592.89
2019-01-30T22:13:39.694Z,99596.25
2019-01-30T22:16:06.781Z,99591.06
2019-01-30T22:18:33.830Z,99594.83
2019-01-30T22:21:00.882Z,99599.19
2019-01-30T22:23:30.109Z,99591.05
2019-01-30T22:25:57.196Z,99593.85
2019-01-30T22:28:24.311Z,99587.00
2019-01-30T22:30:51.385Z,99597.83
2019-01-30T22:33:18.538Z,99599.59
2019-01-30T22:35:45.585Z,99592.18
2019-01-30T22:38:13.019Z,99600.86
2019-01-30T22:40:40.298Z,99598.83
2019-01-30T22:43:07.360Z,99598.23
2019-01-30T22:45:34.440Z,99602.99
2019-01-30T22:48:01.664Z,99603.27
2019-01-30T22:50:28.791Z,99601.50
2019-01-30T22:52:55.906Z,99606.48
2019-01-30T22:55:23.469Z,99608.53
2019-01-30T22:57:51.432Z,99605.88
2019-01-30T23:01:14.069Z,99607.38
2019-01-30T23:04:04.134Z,99602.62
2019-01-30T23:07:09.173Z,99605.55
2019-01-30T23:10:32.063Z,99601.81
2019-01-30T23:14:08.122Z,99602.09
2019-01-30T23:20:34.712Z,99612.91
2019-01-30T23:23:45.435Z,99619.99
2019-01-30T23:26:32.468Z,99619.92
2019-01-30T23:29:52.957Z,99620.05
2019-01-30T23:33:17.010Z,99623.80
2019-01-30T23:36:19.920Z,99620.20
2019-01-30T23:39:25.293Z,99631.69
2019-01-30T23:42:34.885Z,99619.92
2019-01-30T23:45:38.537Z,99628.83
2019-01-30T23:48:50.471Z,99627.33
2019-01-30T23:51:40.378Z,99626.61
2019-01-30T23:54:43.821Z,99631.16
2019-01-30T23:57:54.459Z,99630.55
